createdAt,value
2022-07-25T00:03:07.082Z,5.57
2022-07-25T00:08:14.274Z,6.05
2022-07-25T00:13:21.174Z,5.25
2022-07-25T00:18:30.360Z,5.55
2022-07-25T00:23:33.733Z,5.90
2022-07-25T00:28:38.595Z,6.55
2022-07-25T00:33:42.003Z,5.70
2022-07-25T00:38:51.253Z,5.90
2022-07-25T00:43:56.226Z,5.22
2022-07-25T00:48:59.615Z,5.88
2022-07-25T00:54:04.371Z,6.22
2022-07-25T00:59:10.623Z,6.35
2022-07-25T01:04:23.336Z,6.65
2022-07-25T01:09:27.297Z,6.88
2022-07-25T01:14:37.700Z,7.28
2022-07-25T01:19:41.285Z,7.68
2022-07-25T01:24:48.125Z,7.55
2022-07-25T01:29:52.470Z,7.25
2022-07-25T01:34:56.996Z,7.57
2022-07-25T01:40:02.027Z,7.53
2022-07-25T01:45:12.834Z,7.38
2022-07-25T01:50:18.139Z,7.35
2022-07-25T01:55:22.982Z,7.70
2022-07-25T02:00:30.467Z,8.13
2022-07-25T02:05:33.877Z,7.97
2022-07-25T02:10:45.270Z,7.72
2022-07-25T02:15:56.524Z,8.35
2022-07-25T02:21:01.992Z,8.45
2022-07-25T02:26:06.729Z,8.20
2022-07-25T02:31:10.576Z,8.10
2022-07-25T02:36:13.880Z,8.32
2022-07-25T02:41:28.367Z,8.07
2022-07-25T02:46:34.266Z,7.72
2022-07-25T02:51:37.763Z,8.05
2022-07-25T02:56:42.501Z,8.00
2022-07-25T03:01:45.993Z,7.57
2022-07-25T03:06:53.401Z,8.27
2022-07-25T03:11:58.202Z,8.85
2022-07-25T03:17:01.693Z,8.43
2022-07-25T03:22:11.714Z,8.35
2022-07-25T03:27:17.843Z,8.15
2022-07-25T03:32:23.354Z,7.60
2022-07-25T03:37:27.806Z,7.78
2022-07-25T03:42:35.380Z,7.97
2022-07-25T03:47:40.121Z,8.93
2022-07-25T03:52:43.497Z,8.35
2022-07-25T03:57:48.326Z,7.47
2022-07-25T04:02:51.741Z,8.38
2022-07-25T04:07:55.059Z,9.18
2022-07-25T04:13:01.896Z,8.70
2022-07-25T04:18:05.370Z,8.45
2022-07-25T04:23:12.971Z,8.50
2022-07-25T04:28:17.857Z,8.95
2022-07-25T04:33:24.079Z,8.02
2022-07-25T04:38:27.494Z,8.25
2022-07-25T04:43:34.362Z,7.65
2022-07-25T04:48:37.884Z,7.93
2022-07-25T04:53:42.256Z,7.45
2022-07-25T04:58:47.192Z,7.88
2022-07-25T05:03:50.856Z,8.32
2022-07-25T05:08:54.384Z,8.63
2022-07-25T05:13:59.099Z,8.35
2022-07-25T05:19:06.784Z,8.43
2022-07-25T05:24:10.556Z,8.25
2022-07-25T05:29:15.378Z,8.38
2022-07-25T05:34:19.448Z,8.57
2022-07-25T05:39:22.821Z,6.88
2022-07-25T05:44:27.664Z,7.72
2022-07-25T05:49:31.182Z,7.05
2022-07-25T05:54:35.509Z,9.45
2022-07-25T05:59:40.194Z,6.07
2022-07-25T06:04:43.631Z,6.72
2022-07-25T06:09:47.110Z,7.32
2022-07-25T06:14:52.140Z,7.25
2022-07-25T06:19:55.760Z,6.50
2022-07-25T06:24:59.033Z,6.68
2022-07-25T06:30:18.638Z,5.85
2022-07-25T06:35:29.618Z,5.38
2022-07-25T06:40:33.004Z,5.00
2022-07-25T06:45:40.252Z,5.30
2022-07-25T06:50:46.882Z,5.32
2022-07-25T06:55:50.330Z,5.18
2022-07-25T07:00:56.203Z,4.78
2022-07-25T07:06:01.372Z,4.53
2022-07-25T07:11:07.847Z,4.72
2022-07-25T07:16:14.623Z,4.60
2022-07-25T07:21:21.340Z,5.10
2022-07-25T07:26:30.485Z,4.93
2022-07-25T07:31:35.228Z,4.70
2022-07-25T07:36:38.595Z,5.10
2022-07-25T07:41:41.827Z,4.78
2022-07-25T07:46:46.540Z,4.63
2022-07-25T07:51:57.130Z,4.57
2022-07-25T07:57:04.806Z,5.10
2022-07-25T08:02:09.606Z,4.75
2022-07-25T08:07:14.092Z,4.60
2022-07-25T08:12:24.323Z,4.40
2022-07-25T08:17:34.899Z,4.95
2022-07-25T08:22:41.504Z,4.40
2022-07-25T08:27:56.346Z,5.07
2022-07-25T08:33:03.651Z,5.35
2022-07-25T08:38:07.892Z,5.47
2022-07-25T08:43:14.165Z,5.25
2022-07-25T08:48:22.397Z,4.65
2022-07-25T08:53:34.854Z,4.43
2022-07-25T08:58:38.822Z,4.88
2022-07-25T09:03:44.862Z,4.85
2022-07-25T09:08:56.072Z,4.30
2022-07-25T09:14:00.904Z,3.95
2022-07-25T09:24:47.082Z,3.65
2022-07-25T09:29:50.544Z,3.58
2022-07-25T09:34:55.486Z,4.07
2022-07-25T09:39:58.889Z,3.63
2022-07-25T09:45:21.501Z,3.60
2022-07-25T09:50:29.432Z,3.75
2022-07-25T09:55:33.097Z,3.50
2022-07-25T10:00:37.829Z,3.35
2022-07-25T10:06:09.407Z,3.55
2022-07-25T10:11:31.796Z,3.90
2022-07-25T10:16:45.866Z,3.33
2022-07-25T10:21:58.396Z,3.80
2022-07-25T10:27:09.475Z,3.00
2022-07-25T10:32:14.937Z,3.10
2022-07-25T10:37:21.277Z,3.13
2022-07-25T10:42:26.814Z,3.35
2022-07-25T10:47:39.878Z,3.03
2022-07-25T10:53:09.546Z,3.10
2022-07-25T10:58:22.397Z,3.50
2022-07-25T11:03:27.504Z,3.58
2022-07-25T11:08:37.180Z,3.63
2022-07-25T11:13:43.026Z,3.28
2022-07-25T11:19:04.973Z,3.83
2022-07-25T11:24:10.542Z,3.30
2022-07-25T11:29:28.114Z,3.67
2022-07-25T11:34:55.187Z,4.10
2022-07-25T11:40:00.090Z,4.13
2022-07-25T11:45:30.000Z,3.10
2022-07-25T11:50:35.474Z,3.47
2022-07-25T11:55:42.629Z,3.40
2022-07-25T12:00:59.882Z,4.53
2022-07-25T12:06:10.095Z,5.68
2022-07-25T12:11:29.711Z,3.30
2022-07-25T12:16:36.009Z,3.45
2022-07-25T12:21:39.415Z,3.55
2022-07-25T12:26:45.413Z,3.28
2022-07-25T12:31:50.779Z,2.65
2022-07-25T12:37:15.282Z,2.88
2022-07-25T12:42:28.122Z,3.20
2022-07-25T12:47:43.051Z,2.83
2022-07-25T12:53:06.575Z,3.33
2022-07-25T12:58:26.931Z,2.95
2022-07-25T13:09:42.751Z,3.00
2022-07-25T13:14:47.540Z,3.30
2022-07-25T13:25:43.809Z,4.38
2022-07-25T13:30:51.702Z,4.32
2022-07-25T13:36:07.351Z,4.43
2022-07-25T13:41:39.463Z,4.10
2022-07-25T13:46:50.988Z,4.35
2022-07-25T13:52:00.526Z,4.55
2022-07-25T13:57:06.194Z,4.10
2022-07-25T14:02:11.432Z,5.20
2022-07-25T14:07:15.623Z,4.93
2022-07-25T14:12:18.946Z,4.78
2022-07-25T14:17:28.375Z,7.85
2022-07-25T14:22:33.656Z,4.78
2022-07-25T14:27:38.761Z,5.00
2022-07-25T14:32:43.884Z,5.03
2022-07-25T14:37:47.576Z,4.85
2022-07-25T14:42:51.173Z,5.20
2022-07-25T14:47:56.148Z,5.13
2022-07-25T14:53:01.000Z,4.90
2022-07-25T14:58:04.420Z,5.13
2022-07-25T15:03:09.795Z,5.18
2022-07-25T15:08:14.393Z,4.88
2022-07-25T15:13:34.185Z,5.25
2022-07-25T15:19:05.302Z,5.18
2022-07-25T15:24:06.396Z,6.07
2022-07-25T15:29:12.024Z,5.60
2022-07-25T15:34:17.172Z,5.10
2022-07-25T15:39:20.610Z,4.90
2022-07-25T15:44:27.571Z,5.07
2022-07-25T15:49:32.525Z,5.43
2022-07-25T15:54:36.098Z,5.25
2022-07-25T15:59:49.504Z,5.20
2022-07-25T16:04:54.527Z,5.60
2022-07-25T16:09:58.067Z,5.57
2022-07-25T16:15:01.743Z,5.93
2022-07-25T16:20:13.578Z,5.28
2022-07-25T16:25:17.796Z,6.70
2022-07-25T16:30:23.383Z,5.70
2022-07-25T16:35:29.143Z,5.60
2022-07-25T16:40:32.949Z,5.47
2022-07-25T16:45:42.571Z,5.32
2022-07-25T16:50:48.748Z,5.22
2022-07-25T16:55:52.256Z,5.28
2022-07-25T17:00:55.989Z,5.93
2022-07-25T17:06:01.285Z,5.70
2022-07-25T17:11:06.009Z,5.97
2022-07-25T17:16:10.498Z,5.72
2022-07-25T17:21:19.188Z,5.55
2022-07-25T17:26:25.411Z,5.28
2022-07-25T17:31:29.159Z,5.35
2022-07-25T17:36:33.839Z,5.80
2022-07-25T17:41:37.725Z,5.82
2022-07-25T17:46:41.275Z,5.88
2022-07-25T17:51:46.663Z,6.20
2022-07-25T17:56:50.577Z,6.28
2022-07-25T18:01:53.941Z,5.63
2022-07-25T18:06:59.408Z,5.80
2022-07-25T18:12:03.043Z,5.30
2022-07-25T18:17:07.402Z,6.32
2022-07-25T18:22:13.173Z,5.20
2022-07-25T18:27:16.568Z,5.60
2022-07-25T18:32:20.429Z,6.95
2022-07-25T18:37:25.791Z,5.72
2022-07-25T18:42:30.339Z,5.25
2022-07-25T18:47:35.198Z,4.72
2022-07-25T18:52:45.293Z,4.88
2022-07-25T18:57:48.879Z,4.82
2022-07-25T19:02:52.444Z,4.68
2022-07-25T19:07:59.744Z,4.25
2022-07-25T19:13:03.691Z,4.15
2022-07-25T19:18:07.982Z,4.13
2022-07-25T19:23:12.820Z,3.40
2022-07-25T19:28:16.336Z,3.42
2022-07-25T19:33:19.950Z,3.40
2022-07-25T19:38:27.770Z,3.78
2022-07-25T19:43:31.129Z,3.55
2022-07-25T19:48:38.389Z,3.58
2022-07-25T19:53:43.130Z,3.30
2022-07-25T19:58:46.337Z,3.28
2022-07-25T20:03:50.006Z,2.60
2022-07-25T20:08:55.475Z,2.63
2022-07-25T20:13:59.136Z,2.47
2022-07-25T20:19:02.666Z,2.40
2022-07-25T20:24:09.296Z,1.90
2022-07-25T20:29:12.646Z,1.88
2022-07-25T20:34:16.649Z,1.80
2022-07-25T20:39:24.270Z,1.73
2022-07-25T20:44:27.821Z,1.60
2022-07-25T20:49:31.341Z,1.45
2022-07-25T20:54:36.794Z,1.77
2022-07-25T20:59:40.001Z,1.73
2022-07-25T21:04:43.377Z,1.40
2022-07-25T21:09:48.154Z,1.50
2022-07-25T21:14:51.631Z,1.50
2022-07-25T21:19:55.036Z,1.50
2022-07-25T21:24:59.987Z,1.45
2022-07-25T21:30:04.775Z,1.27
2022-07-25T21:35:08.705Z,1.30
2022-07-25T21:40:13.873Z,1.08
2022-07-25T21:45:17.325Z,1.30
2022-07-25T21:50:43.803Z,1.42
2022-07-25T21:55:48.999Z,1.70
2022-07-25T22:00:53.997Z,1.13
2022-07-25T22:05:57.504Z,1.88
2022-07-25T22:11:15.593Z,1.30
2022-07-25T22:16:19.886Z,1.30
2022-07-25T22:21:23.231Z,1.50
2022-07-25T22:26:27.965Z,1.58
2022-07-25T22:31:31.500Z,1.40
2022-07-25T22:36:34.919Z,1.30
2022-07-25T22:41:39.686Z,1.50
2022-07-25T22:46:43.006Z,1.40
2022-07-25T22:51:46.296Z,1.23
2022-07-25T22:56:50.921Z,1.48
2022-07-25T23:01:54.510Z,1.63
2022-07-25T23:06:57.857Z,1.23
2022-07-25T23:12:02.532Z,1.73
2022-07-25T23:17:21.383Z,1.10
2022-07-25T23:22:26.357Z,1.30
2022-07-25T23:27:34.823Z,1.30
2022-07-25T23:32:38.412Z,1.20
2022-07-25T23:37:41.933Z,1.02
2022-07-25T23:42:46.658Z,1.20
2022-07-25T23:47:51.458Z,1.10
2022-07-25T23:52:56.279Z,1.25
2022-07-25T23:58:01.066Z,1.38
